createdAt,value
2023-01-18T00:00:26.885Z,970.23
2023-01-18T00:01:26.860Z,970.24
2023-01-18T00:02:26.830Z,970.22
2023-01-18T00:03:26.800Z,970.26
2023-01-18T00:04:26.786Z,970.22
2023-01-18T00:05:26.780Z,970.19
2023-01-18T00:06:26.760Z,970.19
2023-01-18T00:07:26.766Z,970.18
2023-01-18T00:08:26.776Z,970.19
2023-01-18T00:09:26.741Z,970.19
2023-01-18T00:10:26.759Z,970.22
2023-01-18T00:11:26.719Z,970.25
2023-01-18T00:12:26.683Z,970.22
2023-01-18T00:13:26.671Z,970.24
2023-01-18T00:14:26.686Z,970.23
2023-01-18T00:15:26.664Z,970.22
2023-01-18T00:16:26.729Z,970.26
2023-01-18T00:17:26.635Z,970.21
2023-01-18T00:18:26.628Z,970.24
2023-01-18T00:19:26.616Z,970.22
2023-01-18T00:20:26.631Z,970.21
2023-01-18T00:21:26.601Z,970.25
2023-01-18T00:22:26.584Z,970.24
2023-01-18T00:23:26.574Z,970.23
2023-01-18T00:24:26.570Z,970.22
2023-01-18T00:25:26.555Z,970.20
2023-01-18T00:26:26.537Z,970.20
2023-01-18T00:27:26.531Z,970.22
2023-01-18T00:28:26.512Z,970.23
2023-01-18T00:29:26.504Z,970.17
2023-01-18T00:30:26.520Z,970.25
2023-01-18T00:31:26.525Z,970.20
2023-01-18T00:32:26.475Z,970.24
2023-01-18T00:33:26.458Z,970.22
2023-01-18T00:34:26.454Z,970.22
2023-01-18T00:35:26.485Z,970.23
2023-01-18T00:36:26.427Z,970.23
2023-01-18T00:37:26.423Z,970.21
2023-01-18T00:38:26.410Z,970.25
2023-01-18T00:39:26.417Z,970.25
2023-01-18T00:40:26.377Z,970.22
2023-01-18T00:41:26.384Z,970.23
2023-01-18T00:42:26.361Z,970.24
2023-01-18T00:43:26.353Z,970.28
2023-01-18T00:44:26.335Z,970.29
2023-01-18T00:45:26.339Z,970.31
2023-01-18T00:46:26.355Z,970.36
2023-01-18T00:47:26.327Z,970.37
2023-01-18T00:48:26.301Z,970.34
2023-01-18T00:49:26.285Z,970.35
2023-01-18T00:50:26.285Z,970.32
2023-01-18T00:51:26.270Z,970.35
2023-01-18T00:52:26.252Z,970.35
2023-01-18T00:53:26.249Z,970.32
2023-01-18T00:54:26.227Z,970.35
2023-01-18T00:55:26.219Z,970.32
2023-01-18T00:56:26.265Z,970.28
2023-01-18T00:57:26.199Z,970.31
2023-01-18T00:58:26.338Z,970.31
2023-01-18T00:59:26.172Z,970.28
2023-01-18T01:00:26.172Z,970.31
2023-01-18T01:01:26.276Z,970.32
2023-01-18T01:02:26.203Z,970.35
2023-01-18T01:03:26.165Z,970.36
2023-01-18T01:04:26.114Z,970.40
2023-01-18T01:05:26.112Z,970.41
2023-01-18T01:06:26.099Z,970.38
2023-01-18T01:07:26.077Z,970.39
2023-01-18T01:08:26.084Z,970.42
2023-01-18T01:09:26.091Z,970.45
2023-01-18T01:10:26.049Z,970.43
2023-01-18T01:11:26.040Z,970.43
2023-01-18T01:12:26.045Z,970.50
2023-01-18T01:13:26.077Z,970.44
2023-01-18T01:14:26.006Z,970.47
2023-01-18T01:15:25.997Z,970.48
2023-01-18T01:16:26.059Z,970.43
2023-01-18T01:17:25.966Z,970.40
2023-01-18T01:18:25.953Z,970.42
2023-01-18T01:19:25.973Z,970.45
2023-01-18T01:20:25.950Z,970.37
2023-01-18T01:21:25.934Z,970.40
2023-01-18T01:22:25.919Z,970.45
2023-01-18T01:23:25.911Z,970.39
2023-01-18T01:24:25.891Z,970.39
2023-01-18T01:25:25.887Z,970.43
2023-01-18T01:26:25.903Z,970.47
2023-01-18T01:27:25.878Z,970.44
2023-01-18T01:28:25.860Z,970.49
2023-01-18T01:29:25.843Z,970.48
2023-01-18T01:30:25.874Z,970.49
2023-01-18T01:31:25.813Z,970.54
2023-01-18T01:32:25.806Z,970.54
2023-01-18T01:33:25.816Z,970.55
2023-01-18T01:34:25.779Z,970.57
2023-01-18T01:35:25.785Z,970.55
2023-01-18T01:36:25.824Z,970.55
2023-01-18T01:37:25.759Z,970.55
2023-01-18T01:38:25.769Z,970.52
2023-01-18T01:39:25.736Z,970.57
2023-01-18T01:40:25.727Z,970.53
2023-01-18T01:41:25.700Z,970.53
2023-01-18T01:42:25.718Z,970.55
2023-01-18T01:43:25.675Z,970.55
2023-01-18T01:44:25.672Z,970.54
2023-01-18T01:45:25.671Z,970.52
2023-01-18T01:46:25.649Z,970.53
2023-01-18T01:47:25.652Z,970.55
2023-01-18T01:48:25.648Z,970.58
2023-01-18T01:49:25.629Z,970.60
2023-01-18T01:50:25.612Z,970.60
2023-01-18T01:51:25.606Z,970.60
2023-01-18T01:52:25.584Z,970.66
2023-01-18T01:53:25.586Z,970.63
2023-01-18T01:54:25.590Z,970.63
2023-01-18T01:55:25.552Z,970.64
2023-01-18T01:56:25.545Z,970.63
2023-01-18T01:57:25.539Z,970.66
2023-01-18T01:58:25.522Z,970.67
2023-01-18T01:59:25.535Z,970.66
2023-01-18T02:00:25.493Z,970.66
2023-01-18T02:01:25.589Z,970.68
2023-01-18T02:02:25.537Z,970.67
2023-01-18T02:03:25.460Z,970.70
2023-01-18T02:04:25.464Z,970.70
2023-01-18T02:05:25.479Z,970.74
2023-01-18T02:06:25.490Z,970.76
2023-01-18T02:07:25.436Z,970.77
2023-01-18T02:08:25.427Z,970.76
2023-01-18T02:09:25.399Z,970.80
2023-01-18T02:10:25.399Z,970.79
2023-01-18T02:11:25.373Z,970.78
2023-01-18T02:12:25.374Z,970.81
2023-01-18T02:13:25.383Z,970.81
2023-01-18T02:14:25.346Z,970.83
2023-01-18T02:15:25.400Z,970.85
2023-01-18T02:16:25.327Z,970.86
2023-01-18T02:17:25.328Z,970.83
2023-01-18T02:18:25.297Z,970.87
2023-01-18T02:19:25.285Z,970.85
2023-01-18T02:20:25.266Z,970.82
2023-01-18T02:21:25.271Z,970.80
2023-01-18T02:22:25.252Z,970.82
2023-01-18T02:23:25.265Z,970.84
2023-01-18T02:24:25.226Z,970.83
2023-01-18T02:25:25.239Z,970.81
2023-01-18T02:26:25.225Z,970.85
2023-01-18T02:27:25.201Z,970.84
2023-01-18T02:28:25.182Z,970.85
2023-01-18T02:29:25.176Z,970.85
2023-01-18T02:30:25.175Z,970.81
2023-01-18T02:31:25.161Z,970.84
2023-01-18T02:32:25.175Z,970.86
2023-01-18T02:33:25.132Z,970.87
2023-01-18T02:34:25.179Z,970.93
2023-01-18T02:35:25.124Z,970.94
2023-01-18T02:36:25.098Z,970.97
2023-01-18T02:37:25.091Z,970.92
2023-01-18T02:38:25.089Z,970.97
2023-01-18T02:39:25.082Z,970.92
2023-01-18T02:40:25.065Z,970.96
2023-01-18T02:41:25.059Z,970.98
2023-01-18T02:42:25.050Z,970.97
2023-01-18T02:43:25.019Z,970.98
2023-01-18T02:44:25.019Z,971.03
2023-01-18T02:45:25.014Z,971.03
2023-01-18T02:46:25.018Z,971.06
2023-01-18T02:47:24.978Z,971.04
2023-01-18T02:48:24.974Z,971.09
2023-01-18T02:49:24.948Z,971.09
2023-01-18T02:50:24.969Z,971.07
2023-01-18T02:51:24.935Z,971.08
2023-01-18T02:52:24.921Z,971.15
2023-01-18T02:53:24.923Z,971.09
2023-01-18T02:54:24.923Z,971.14
2023-01-18T02:55:24.880Z,971.10
2023-01-18T02:56:24.881Z,971.09
2023-01-18T02:57:24.874Z,971.11
2023-01-18T02:58:24.856Z,971.09
2023-01-18T02:59:24.847Z,971.09
2023-01-18T03:00:24.832Z,971.10
2023-01-18T03:01:24.950Z,971.07
2023-01-18T03:02:24.911Z,971.11
2023-01-18T03:03:24.802Z,971.14
2023-01-18T03:04:24.791Z,971.16
2023-01-18T03:05:24.792Z,971.19
2023-01-18T03:06:24.787Z,971.18
2023-01-18T03:07:24.752Z,971.14
2023-01-18T03:08:24.738Z,971.17
2023-01-18T03:09:24.743Z,971.19
2023-01-18T03:10:24.727Z,971.20
2023-01-18T03:11:24.728Z,971.21
2023-01-18T03:12:24.702Z,971.24
2023-01-18T03:13:24.704Z,971.22
2023-01-18T03:14:24.681Z,971.21
2023-01-18T03:15:24.667Z,971.19
2023-01-18T03:16:24.655Z,971.24
2023-01-18T03:17:24.662Z,971.20
2023-01-18T03:18:24.644Z,971.26
2023-01-18T03:19:24.694Z,971.28
2023-01-18T03:20:25.566Z,971.23
2023-01-18T03:21:24.605Z,971.26
2023-01-18T03:22:24.593Z,971.23
2023-01-18T03:23:24.577Z,971.21
2023-01-18T03:24:24.585Z,971.26
2023-01-18T03:25:24.569Z,971.21
2023-01-18T03:26:24.575Z,971.19
2023-01-18T03:27:24.535Z,971.18
2023-01-18T03:28:24.529Z,971.23
2023-01-18T03:29:24.507Z,971.19
2023-01-18T03:30:24.520Z,971.19
2023-01-18T03:31:24.572Z,971.21
2023-01-18T03:32:24.485Z,971.21
2023-01-18T03:33:24.471Z,971.19
2023-01-18T03:34:24.465Z,971.22
2023-01-18T03:35:24.445Z,971.25
2023-01-18T03:36:24.452Z,971.25
2023-01-18T03:37:24.457Z,971.27
2023-01-18T03:38:24.418Z,971.28
2023-01-18T03:39:24.425Z,971.26
2023-01-18T03:40:24.387Z,971.28
2023-01-18T03:41:24.384Z,971.27
2023-01-18T03:42:24.388Z,971.35
2023-01-18T03:43:24.371Z,971.31
2023-01-18T03:44:24.357Z,971.32
2023-01-18T03:45:24.350Z,971.34
2023-01-18T03:46:24.370Z,971.31
2023-01-18T03:47:24.345Z,971.31
2023-01-18T03:48:24.312Z,971.33
2023-01-18T03:49:24.292Z,971.32
2023-01-18T03:50:24.301Z,971.31
2023-01-18T03:51:24.284Z,971.35
2023-01-18T03:52:24.303Z,971.38
2023-01-18T03:53:24.258Z,971.38
2023-01-18T03:54:24.252Z,971.44
2023-01-18T03:55:24.252Z,971.44
2023-01-18T03:56:24.230Z,971.41
2023-01-18T03:57:24.234Z,971.42
2023-01-18T03:58:24.218Z,971.44
2023-01-18T03:59:24.180Z,971.47
2023-01-18T04:00:24.178Z,971.46
2023-01-18T04:01:24.374Z,971.51
2023-01-18T04:02:24.226Z,971.49
2023-01-18T04:03:24.139Z,971.50
2023-01-18T04:04:24.126Z,971.54
2023-01-18T04:05:24.126Z,971.49
2023-01-18T04:06:24.113Z,971.55
2023-01-18T04:07:24.113Z,971.56
2023-01-18T04:08:24.087Z,971.52
2023-01-18T04:09:24.083Z,971.54
2023-01-18T04:10:24.077Z,971.55
2023-01-18T04:11:24.069Z,971.57
2023-01-18T04:12:24.048Z,971.59
2023-01-18T04:13:24.028Z,971.58
2023-01-18T04:14:24.036Z,971.60
2023-01-18T04:15:24.002Z,971.64
2023-01-18T04:16:23.994Z,971.67
2023-01-18T04:17:23.989Z,971.65
2023-01-18T04:18:23.973Z,971.70
2023-01-18T04:19:23.972Z,971.73
2023-01-18T04:20:23.964Z,971.75
2023-01-18T04:21:23.935Z,971.71
2023-01-18T04:22:23.955Z,971.73
2023-01-18T04:23:23.921Z,971.78
2023-01-18T04:24:23.925Z,971.73
2023-01-18T04:25:23.910Z,971.78
2023-01-18T04:26:23.917Z,971.78
2023-01-18T04:27:24.403Z,971.81
2023-01-18T04:28:24.053Z,971.77
2023-01-18T04:29:23.853Z,971.79
2023-01-18T04:30:23.863Z,971.77
2023-01-18T04:31:23.888Z,971.78
2023-01-18T04:32:23.832Z,971.81
2023-01-18T04:33:23.833Z,971.84
2023-01-18T04:34:23.799Z,971.82
2023-01-18T04:35:23.793Z,971.78
2023-01-18T04:36:23.791Z,971.79
2023-01-18T04:37:23.756Z,971.80
2023-01-18T04:38:23.761Z,971.84
2023-01-18T04:39:23.759Z,971.81
2023-01-18T04:40:23.741Z,971.80
2023-01-18T04:41:23.745Z,971.81
2023-01-18T04:42:23.721Z,971.86
2023-01-18T04:43:23.714Z,971.88
2023-01-18T04:44:23.701Z,971.90
2023-01-18T04:45:23.684Z,971.89
2023-01-18T04:46:23.718Z,971.86
2023-01-18T04:47:23.649Z,971.90
2023-01-18T04:48:23.877Z,971.92
2023-01-18T04:49:23.649Z,971.96
2023-01-18T04:50:23.620Z,971.95
2023-01-18T04:51:23.628Z,971.98
2023-01-18T04:52:23.604Z,971.97
2023-01-18T04:53:23.593Z,972.00
2023-01-18T04:54:23.574Z,972.01
2023-01-18T04:55:23.571Z,971.96
2023-01-18T04:56:23.548Z,972.01
2023-01-18T04:57:23.546Z,972.00
2023-01-18T04:58:23.544Z,972.03
2023-01-18T04:59:23.522Z,972.05
2023-01-18T05:00:23.509Z,972.08
2023-01-18T05:01:23.697Z,972.08
2023-01-18T05:02:23.516Z,972.11
2023-01-18T05:03:23.477Z,972.12
2023-01-18T05:04:23.500Z,972.17
2023-01-18T05:05:24.031Z,972.15
2023-01-18T05:06:23.443Z,972.16
2023-01-18T05:07:23.462Z,972.17
2023-01-18T05:08:23.459Z,972.20
2023-01-18T05:09:23.425Z,972.19
2023-01-18T05:10:23.398Z,972.19
2023-01-18T05:11:23.417Z,972.20
2023-01-18T05:12:23.376Z,972.18
2023-01-18T05:13:23.365Z,972.20
2023-01-18T05:14:23.360Z,972.26
2023-01-18T05:15:23.417Z,972.26
2023-01-18T05:16:23.736Z,972.28
2023-01-18T05:17:23.355Z,972.30
2023-01-18T05:18:23.343Z,972.30
2023-01-18T05:19:23.306Z,972.34
2023-01-18T05:20:23.288Z,972.32
2023-01-18T05:21:23.287Z,972.33
2023-01-18T05:22:23.308Z,972.32
2023-01-18T05:23:23.454Z,972.35
2023-01-18T05:24:24.812Z,972.36
2023-01-18T05:25:23.785Z,972.35
2023-01-18T05:26:23.229Z,972.38
2023-01-18T05:27:23.243Z,972.40
2023-01-18T05:28:23.206Z,972.40
2023-01-18T05:29:23.247Z,972.41
2023-01-18T05:30:23.208Z,972.42
2023-01-18T05:31:23.453Z,972.40
2023-01-18T05:32:23.271Z,972.43
2023-01-18T05:33:23.157Z,972.43
2023-01-18T05:34:23.167Z,972.42
2023-01-18T05:35:23.162Z,972.46
2023-01-18T05:36:23.126Z,972.43
2023-01-18T05:37:23.114Z,972.52
2023-01-18T05:38:23.111Z,972.50
2023-01-18T05:39:23.097Z,972.53
2023-01-18T05:40:23.075Z,972.54
2023-01-18T05:41:23.061Z,972.53
2023-01-18T05:42:24.414Z,972.54
2023-01-18T05:43:23.043Z,972.52
2023-01-18T05:44:23.036Z,972.57
2023-01-18T05:45:23.195Z,972.57
2023-01-18T05:46:23.188Z,972.60
2023-01-18T05:47:23.054Z,972.61
2023-01-18T05:48:22.999Z,972.61
2023-01-18T05:49:22.982Z,972.61
2023-01-18T05:50:22.980Z,972.67
2023-01-18T05:51:22.985Z,972.63
2023-01-18T05:52:22.958Z,972.66
2023-01-18T05:53:22.941Z,972.68
2023-01-18T05:54:22.925Z,972.69
2023-01-18T05:55:22.915Z,972.69
2023-01-18T05:56:22.913Z,972.71
2023-01-18T05:57:22.918Z,972.73
2023-01-18T05:58:22.871Z,972.75
2023-01-18T05:59:22.864Z,972.77
2023-01-18T06:00:22.857Z,972.84
2023-01-18T06:01:22.984Z,972.82
2023-01-18T06:02:22.834Z,972.89
2023-01-18T06:03:22.844Z,972.85
2023-01-18T06:04:22.831Z,972.89
2023-01-18T06:05:22.787Z,972.90
2023-01-18T06:06:22.790Z,972.91
2023-01-18T06:07:22.783Z,972.91
2023-01-18T06:08:22.778Z,972.91
2023-01-18T06:09:22.764Z,972.93
2023-01-18T06:10:22.749Z,972.93
2023-01-18T06:11:22.754Z,972.93
2023-01-18T06:12:22.716Z,972.98
2023-01-18T06:13:22.700Z,972.97
2023-01-18T06:14:22.731Z,972.99
2023-01-18T06:15:22.693Z,973.00
2023-01-18T06:16:22.766Z,972.99
2023-01-18T06:17:22.675Z,973.02
2023-01-18T06:18:22.670Z,973.07
2023-01-18T06:19:22.663Z,973.04
2023-01-18T06:20:22.632Z,973.12
2023-01-18T06:21:22.649Z,973.08
2023-01-18T06:22:22.630Z,973.17
2023-01-18T06:23:22.604Z,973.18
2023-01-18T06:24:22.617Z,973.18
2023-01-18T06:25:22.581Z,973.21
2023-01-18T06:26:22.573Z,973.17
2023-01-18T06:27:22.555Z,973.23
2023-01-18T06:28:22.577Z,973.22
2023-01-18T06:29:22.530Z,973.22
2023-01-18T06:30:22.521Z,973.25
2023-01-18T06:31:22.526Z,973.30
2023-01-18T06:32:22.498Z,973.34
2023-01-18T06:33:22.497Z,973.31
2023-01-18T06:34:22.508Z,973.29
2023-01-18T06:35:22.471Z,973.31
2023-01-18T06:36:22.461Z,973.33
2023-01-18T06:37:22.457Z,973.33
2023-01-18T06:38:22.451Z,973.38
2023-01-18T06:39:22.417Z,973.41
2023-01-18T06:40:22.432Z,973.39
2023-01-18T06:41:22.395Z,973.37
2023-01-18T06:42:22.402Z,973.39
2023-01-18T06:43:22.383Z,973.37
2023-01-18T06:44:22.380Z,973.37
2023-01-18T06:45:22.413Z,973.37
2023-01-18T06:46:22.355Z,973.36
2023-01-18T06:47:22.330Z,973.39
2023-01-18T06:48:22.346Z,973.44
2023-01-18T06:49:22.335Z,973.46
2023-01-18T06:50:22.312Z,973.47
2023-01-18T06:51:22.308Z,973.47
2023-01-18T06:52:22.283Z,973.49
2023-01-18T06:53:22.269Z,973.55
2023-01-18T06:54:22.253Z,973.58
2023-01-18T06:55:22.248Z,973.56
2023-01-18T06:56:22.239Z,973.57
2023-01-18T06:57:22.239Z,973.56
2023-01-18T06:58:22.214Z,973.58
2023-01-18T06:59:22.198Z,973.61
2023-01-18T07:00:22.188Z,973.60
2023-01-18T07:01:22.330Z,973.58
2023-01-18T07:02:22.171Z,973.63
2023-01-18T07:03:22.168Z,973.61
2023-01-18T07:04:22.225Z,973.63
2023-01-18T07:05:22.139Z,973.59
2023-01-18T07:06:22.151Z,973.63
2023-01-18T07:07:22.116Z,973.64
2023-01-18T07:08:22.105Z,973.66
2023-01-18T07:09:22.127Z,973.66
2023-01-18T07:10:22.086Z,973.69
2023-01-18T07:11:22.095Z,973.72
2023-01-18T07:12:22.069Z,973.74
2023-01-18T07:13:22.069Z,973.76
2023-01-18T07:14:22.053Z,973.76
2023-01-18T07:15:23.010Z,973.74
2023-01-18T07:16:22.091Z,973.74
2023-01-18T07:17:22.008Z,973.76
2023-01-18T07:18:21.991Z,973.75
2023-01-18T07:19:21.986Z,973.82
2023-01-18T07:20:21.984Z,973.78
2023-01-18T07:21:21.967Z,973.81
2023-01-18T07:22:21.964Z,973.82
2023-01-18T07:23:21.946Z,973.86
2023-01-18T07:24:21.942Z,973.89
2023-01-18T07:25:22.006Z,973.92
2023-01-18T07:26:22.075Z,973.96
2023-01-18T07:27:21.907Z,973.97
2023-01-18T07:28:22.187Z,974.01
2023-01-18T07:29:21.894Z,974.00
2023-01-18T07:30:21.901Z,974.05
2023-01-18T07:31:21.852Z,974.01
2023-01-18T07:32:21.831Z,974.07
2023-01-18T07:33:21.833Z,974.07
2023-01-18T07:34:21.817Z,974.08
2023-01-18T07:35:21.821Z,974.09
2023-01-18T07:36:21.798Z,974.09
2023-01-18T07:37:21.809Z,974.07
2023-01-18T07:38:21.776Z,974.05
2023-01-18T07:39:21.774Z,974.09
2023-01-18T07:40:21.806Z,974.03
2023-01-18T07:41:21.750Z,974.08
2023-01-18T07:42:21.747Z,974.12
2023-01-18T07:43:21.729Z,974.12
2023-01-18T07:44:21.737Z,974.14
2023-01-18T07:45:21.722Z,974.17
2023-01-18T07:46:21.708Z,974.17
2023-01-18T07:47:21.700Z,974.19
2023-01-18T07:48:21.689Z,974.20
2023-01-18T07:49:21.659Z,974.25
2023-01-18T07:50:21.656Z,974.26
2023-01-18T07:51:21.652Z,974.25
2023-01-18T07:52:21.629Z,974.24
2023-01-18T07:53:21.631Z,974.24
2023-01-18T07:54:21.604Z,974.27
2023-01-18T07:55:21.658Z,974.31
2023-01-18T07:56:21.590Z,974.30
2023-01-18T07:57:21.565Z,974.34
2023-01-18T07:58:21.570Z,974.39
2023-01-18T07:59:21.561Z,974.42
2023-01-18T08:00:21.539Z,974.44
2023-01-18T08:01:21.698Z,974.50
2023-01-18T08:02:21.547Z,974.47
2023-01-18T08:03:21.498Z,974.49
2023-01-18T08:04:21.505Z,974.47
2023-01-18T08:05:21.490Z,974.48
2023-01-18T08:06:21.466Z,974.52
2023-01-18T08:07:21.464Z,974.51
2023-01-18T08:08:21.452Z,974.51
2023-01-18T08:09:21.443Z,974.52
2023-01-18T08:10:21.426Z,974.54
2023-01-18T08:11:21.425Z,974.57
2023-01-18T08:12:21.438Z,974.59
2023-01-18T08:13:21.397Z,974.60
2023-01-18T08:14:21.379Z,974.62
2023-01-18T08:15:21.386Z,974.65
2023-01-18T08:16:21.363Z,974.67
2023-01-18T08:17:21.371Z,974.69
2023-01-18T08:18:21.329Z,974.67
2023-01-18T08:19:21.319Z,974.70
2023-01-18T08:20:21.310Z,974.70
2023-01-18T08:21:21.300Z,974.75
2023-01-18T08:22:21.304Z,974.73
2023-01-18T08:23:21.294Z,974.77
2023-01-18T08:24:21.263Z,974.75
2023-01-18T08:25:21.252Z,974.77
2023-01-18T08:26:21.290Z,974.78
2023-01-18T08:27:21.234Z,974.80
2023-01-18T08:28:21.249Z,974.83
2023-01-18T08:29:21.210Z,974.83
2023-01-18T08:30:21.200Z,974.83
2023-01-18T08:31:21.303Z,974.88
2023-01-18T08:32:21.172Z,974.87
2023-01-18T08:33:21.180Z,974.94
2023-01-18T08:34:21.179Z,974.92
2023-01-18T08:35:23.644Z,974.88
2023-01-18T08:36:21.134Z,974.92
2023-01-18T08:37:21.296Z,974.97
2023-01-18T08:38:21.109Z,974.93
2023-01-18T08:39:21.118Z,974.96
2023-01-18T08:40:21.121Z,974.99
2023-01-18T08:41:21.113Z,974.97
2023-01-18T08:42:21.068Z,974.99
2023-01-18T08:43:21.058Z,975.01
2023-01-18T08:44:21.044Z,975.04
2023-01-18T08:45:21.045Z,975.04
2023-01-18T08:46:21.147Z,975.07
2023-01-18T08:47:21.051Z,975.01
2023-01-18T08:48:21.003Z,975.04
2023-01-18T08:49:21.006Z,975.08
2023-01-18T08:50:21.060Z,975.11
2023-01-18T08:51:20.986Z,975.18
2023-01-18T08:52:20.972Z,975.20
2023-01-18T08:53:20.952Z,975.22
2023-01-18T08:54:20.935Z,975.27
2023-01-18T08:55:20.940Z,975.25
2023-01-18T08:56:20.912Z,975.28
2023-01-18T08:57:20.907Z,975.27
2023-01-18T08:58:20.919Z,975.25
2023-01-18T08:59:20.949Z,975.27
2023-01-18T09:00:20.907Z,975.24
2023-01-18T09:01:20.971Z,975.24
2023-01-18T09:02:20.864Z,975.29
2023-01-18T09:03:20.836Z,975.32
2023-01-18T09:04:20.829Z,975.32
2023-01-18T09:05:20.814Z,975.34
2023-01-18T09:06:20.812Z,975.37
2023-01-18T09:07:20.800Z,975.40
2023-01-18T09:08:20.810Z,975.40
2023-01-18T09:09:20.769Z,975.41
2023-01-18T09:10:20.763Z,975.47
2023-01-18T09:11:20.812Z,975.49
2023-01-18T09:12:20.742Z,975.51
2023-01-18T09:13:20.750Z,975.50
2023-01-18T09:14:20.725Z,975.50
2023-01-18T09:15:20.751Z,975.51
2023-01-18T09:16:20.750Z,975.49
2023-01-18T09:17:20.699Z,975.52
2023-01-18T09:18:20.671Z,975.52
2023-01-18T09:19:20.694Z,975.56
2023-01-18T09:20:20.671Z,975.56
2023-01-18T09:21:20.642Z,975.59
2023-01-18T09:22:20.638Z,975.59
2023-01-18T09:23:20.629Z,975.65
2023-01-18T09:24:20.611Z,975.70
2023-01-18T09:25:20.620Z,975.68
2023-01-18T09:26:20.818Z,975.68
2023-01-18T09:27:20.601Z,975.67
2023-01-18T09:28:20.559Z,975.68
2023-01-18T09:29:20.566Z,975.65
2023-01-18T09:30:20.544Z,975.72
2023-01-18T09:31:20.591Z,975.71
2023-01-18T09:32:20.536Z,975.68
2023-01-18T09:33:20.509Z,975.71
2023-01-18T09:34:20.528Z,975.69
2023-01-18T09:35:20.483Z,975.69
2023-01-18T09:36:20.476Z,975.75
2023-01-18T09:37:20.468Z,975.77
2023-01-18T09:38:20.501Z,975.81
2023-01-18T09:39:20.450Z,975.80
2023-01-18T09:40:20.508Z,975.80
2023-01-18T09:41:20.440Z,975.85
2023-01-18T09:42:20.418Z,975.86
2023-01-18T09:43:20.405Z,975.86
2023-01-18T09:44:20.396Z,975.88
2023-01-18T09:45:20.385Z,975.86
2023-01-18T09:46:20.482Z,975.88
2023-01-18T09:47:20.389Z,975.92
2023-01-18T09:48:20.359Z,975.90
2023-01-18T09:49:20.338Z,975.89
2023-01-18T09:50:20.332Z,975.87
2023-01-18T09:51:20.319Z,975.88
2023-01-18T09:52:20.321Z,975.88
2023-01-18T09:53:20.312Z,975.90
2023-01-18T09:54:20.292Z,975.91
2023-01-18T09:55:20.266Z,975.90
2023-01-18T09:56:20.257Z,975.93
2023-01-18T09:57:20.246Z,975.96
2023-01-18T09:58:20.240Z,975.93
2023-01-18T09:59:20.248Z,975.95
2023-01-18T10:00:20.213Z,975.94
2023-01-18T10:01:20.488Z,975.98
2023-01-18T10:02:20.276Z,975.94
2023-01-18T10:03:20.188Z,975.94
2023-01-18T10:04:20.166Z,975.95
2023-01-18T10:05:20.173Z,975.97
2023-01-18T10:06:20.165Z,975.99
2023-01-18T10:07:20.134Z,975.97
2023-01-18T10:08:20.129Z,975.97
2023-01-18T10:09:20.128Z,975.96
2023-01-18T10:10:20.106Z,975.98
2023-01-18T10:11:20.090Z,975.96
2023-01-18T10:12:20.108Z,976.01
2023-01-18T10:13:20.068Z,976.02
2023-01-18T10:14:20.063Z,976.00
2023-01-18T10:15:20.075Z,976.05
2023-01-18T10:16:20.058Z,976.10
2023-01-18T10:17:20.031Z,976.06
2023-01-18T10:18:20.028Z,976.04
2023-01-18T10:19:20.038Z,976.10
2023-01-18T10:20:19.988Z,976.09
2023-01-18T10:21:19.994Z,976.11
2023-01-18T10:22:19.973Z,976.09
2023-01-18T10:23:19.971Z,976.13
2023-01-18T10:24:19.966Z,976.08
2023-01-18T10:25:19.959Z,976.11
2023-01-18T10:26:19.918Z,976.08
2023-01-18T10:27:19.930Z,976.10
2023-01-18T10:28:19.976Z,976.11
2023-01-18T10:29:19.899Z,976.07
2023-01-18T10:30:19.918Z,976.15
2023-01-18T10:31:19.900Z,976.20
2023-01-18T10:32:19.863Z,976.19
2023-01-18T10:33:19.861Z,976.16
2023-01-18T10:34:19.833Z,976.18
2023-01-18T10:35:19.841Z,976.16
2023-01-18T10:36:19.819Z,976.14
2023-01-18T10:37:19.816Z,976.14
2023-01-18T10:38:19.799Z,976.11
2023-01-18T10:39:19.802Z,976.13
2023-01-18T10:40:19.783Z,976.14
2023-01-18T10:41:19.780Z,976.17
2023-01-18T10:42:19.754Z,976.16
2023-01-18T10:43:19.750Z,976.18
2023-01-18T10:44:19.729Z,976.13
2023-01-18T10:45:19.735Z,976.16
2023-01-18T10:46:19.764Z,976.22
2023-01-18T10:47:19.729Z,976.17
2023-01-18T10:48:19.694Z,976.20
2023-01-18T10:49:19.671Z,976.19
2023-01-18T10:50:19.663Z,976.23
2023-01-18T10:51:19.680Z,976.26
2023-01-18T10:52:19.646Z,976.31
2023-01-18T10:53:19.629Z,976.34
2023-01-18T10:54:19.627Z,976.37
2023-01-18T10:55:19.622Z,976.39
2023-01-18T10:56:19.619Z,976.37
2023-01-18T10:57:19.589Z,976.39
2023-01-18T10:58:19.573Z,976.41
2023-01-18T10:59:19.611Z,976.42
2023-01-18T11:00:19.545Z,976.52
2023-01-18T11:01:19.710Z,976.46
2023-01-18T11:02:19.567Z,976.43
2023-01-18T11:03:19.512Z,976.50
2023-01-18T11:04:19.515Z,976.49
2023-01-18T11:05:19.494Z,976.52
2023-01-18T11:06:19.481Z,976.46
2023-01-18T11:07:19.467Z,976.49
2023-01-18T11:08:19.462Z,976.49
2023-01-18T11:09:19.460Z,976.42
2023-01-18T11:10:19.446Z,976.47
2023-01-18T11:11:19.432Z,976.43
2023-01-18T11:12:19.421Z,976.44
2023-01-18T11:13:19.412Z,976.47
2023-01-18T11:14:19.400Z,976.47
2023-01-18T11:15:19.385Z,976.49
2023-01-18T11:16:19.415Z,976.48
2023-01-18T11:17:19.363Z,976.52
2023-01-18T11:18:19.364Z,976.52
2023-01-18T11:19:19.351Z,976.50
2023-01-18T11:20:19.336Z,976.55
2023-01-18T11:21:19.334Z,976.53
2023-01-18T11:22:19.312Z,976.55
2023-01-18T11:23:19.329Z,976.51
2023-01-18T11:24:19.302Z,976.55
2023-01-18T11:25:19.291Z,976.56
2023-01-18T11:26:19.320Z,976.53
2023-01-18T11:27:19.278Z,976.53
2023-01-18T11:28:19.257Z,976.54
2023-01-18T11:29:19.222Z,976.57
2023-01-18T11:30:19.213Z,976.56
2023-01-18T11:31:21.146Z,976.51
2023-01-18T11:32:19.198Z,976.56
2023-01-18T11:33:19.184Z,976.60
2023-01-18T11:34:19.185Z,976.58
2023-01-18T11:35:19.164Z,976.57
2023-01-18T11:36:19.167Z,976.56
2023-01-18T11:37:19.164Z,976.56
2023-01-18T11:38:19.127Z,976.55
2023-01-18T11:39:19.130Z,976.55
2023-01-18T11:40:19.143Z,976.62
2023-01-18T11:41:19.097Z,976.55
2023-01-18T11:42:19.080Z,976.56
2023-01-18T11:43:19.084Z,976.58
2023-01-18T11:44:19.098Z,976.57
2023-01-18T11:45:19.065Z,976.58
2023-01-18T11:46:19.082Z,976.58
2023-01-18T11:47:19.033Z,976.55
2023-01-18T11:48:19.024Z,976.52
2023-01-18T11:49:19.036Z,976.54
2023-01-18T11:50:22.362Z,976.55
2023-01-18T11:51:18.984Z,976.55
2023-01-18T11:52:18.969Z,976.58
2023-01-18T11:53:18.961Z,976.57
2023-01-18T11:54:18.987Z,976.62
2023-01-18T11:55:18.945Z,976.62
2023-01-18T11:56:18.935Z,976.61
2023-01-18T11:57:18.920Z,976.61
2023-01-18T11:58:18.912Z,976.68
2023-01-18T11:59:18.903Z,976.62
2023-01-18T12:00:18.960Z,976.61
2023-01-18T12:01:18.888Z,976.45
2023-01-18T12:02:18.971Z,976.53
2023-01-18T12:03:18.910Z,976.52
2023-01-18T12:04:18.838Z,976.54
2023-01-18T12:05:18.857Z,976.50
2023-01-18T12:06:18.826Z,976.50
2023-01-18T12:07:18.841Z,976.49
2023-01-18T12:08:18.816Z,976.43
2023-01-18T12:09:18.784Z,976.43
2023-01-18T12:10:18.829Z,976.54
2023-01-18T12:11:18.802Z,976.49
2023-01-18T12:12:19.824Z,976.51
2023-01-18T12:13:18.743Z,976.47
2023-01-18T12:14:18.754Z,976.38
2023-01-18T12:15:18.719Z,976.42
2023-01-18T12:16:18.791Z,976.42
2023-01-18T12:17:18.734Z,976.44
2023-01-18T12:18:19.210Z,976.47
2023-01-18T12:19:18.683Z,976.44
2023-01-18T12:20:18.684Z,976.48
2023-01-18T12:21:18.654Z,976.46
2023-01-18T12:22:18.641Z,976.50
2023-01-18T12:23:18.661Z,976.48
2023-01-18T12:24:18.617Z,976.49
2023-01-18T12:25:18.627Z,976.46
2023-01-18T12:26:18.601Z,976.54
2023-01-18T12:27:18.590Z,976.62
2023-01-18T12:28:18.590Z,976.62